createdAt,value
2023-10-26T00:01:56.737Z,62.88
2023-10-26T00:03:59.082Z,62.59
2023-10-26T00:06:00.737Z,62.59
2023-10-26T00:08:02.337Z,62.64
2023-10-26T00:10:04.749Z,62.56
2023-10-26T00:12:06.480Z,62.74
2023-10-26T00:14:08.114Z,62.66
2023-10-26T00:16:09.760Z,62.69
2023-10-26T00:18:12.780Z,62.78
2023-10-26T00:20:14.613Z,62.64
2023-10-26T00:22:16.369Z,62.88
2023-10-26T00:24:18.125Z,62.65
2023-10-26T00:26:19.818Z,62.74
2023-10-26T00:28:21.583Z,62.62
2023-10-26T00:30:23.374Z,62.61
2023-10-26T00:32:25.169Z,62.66
2023-10-26T00:34:27.089Z,62.56
2023-10-26T00:36:28.617Z,62.77
2023-10-26T00:38:30.138Z,62.92
2023-10-26T00:40:31.565Z,62.61
2023-10-26T00:42:33.158Z,62.56
2023-10-26T00:44:34.692Z,62.95
2023-10-26T00:46:36.552Z,62.81
2023-10-26T00:48:38.764Z,62.78
2023-10-26T00:50:41.977Z,62.82
2023-10-26T00:52:43.704Z,62.77
2023-10-26T00:54:46.339Z,63.06
2023-10-26T00:56:49.111Z,62.92
2023-10-26T00:58:50.662Z,62.70
2023-10-26T01:00:52.300Z,62.85
2023-10-26T01:02:54.668Z,62.89
2023-10-26T01:04:56.405Z,62.75
2023-10-26T01:06:58.164Z,62.88
2023-10-26T01:08:59.723Z,62.79
2023-10-26T01:11:02.382Z,62.83
2023-10-26T01:13:05.404Z,62.70
2023-10-26T01:15:07.777Z,62.74
2023-10-26T01:17:09.356Z,62.95
2023-10-26T01:19:10.936Z,62.79
2023-10-26T01:21:12.660Z,62.69
2023-10-26T01:23:14.324Z,63.01
2023-10-26T01:29:28.805Z,63.05
2023-10-26T01:31:30.386Z,62.83
2023-10-26T01:33:32.198Z,62.75
2023-10-26T01:35:42.058Z,62.74
2023-10-26T01:37:43.819Z,62.95
2023-10-26T01:39:45.446Z,63.07
2023-10-26T01:41:50.051Z,63.14
2023-10-26T01:43:51.581Z,63.00
2023-10-26T01:45:53.265Z,63.00
2023-10-26T01:47:55.849Z,62.99
2023-10-26T01:49:57.513Z,63.13
2023-10-26T01:51:59.486Z,62.95
2023-10-26T01:54:01.015Z,62.99
2023-10-26T01:56:02.803Z,63.21
2023-10-26T01:58:04.311Z,63.13
2023-10-26T02:00:06.385Z,63.08
2023-10-26T02:02:07.965Z,63.00
2023-10-26T02:04:09.443Z,63.09
2023-10-26T02:06:11.071Z,63.47
2023-10-26T02:08:12.900Z,63.22
2023-10-26T02:10:15.287Z,63.37
2023-10-26T02:12:17.005Z,63.11
2023-10-26T02:14:19.151Z,63.37
2023-10-26T02:16:21.548Z,63.47
2023-10-26T02:18:23.170Z,63.60
2023-10-26T02:20:24.733Z,63.11
2023-10-26T02:22:26.198Z,63.28
2023-10-26T02:24:28.491Z,63.54
2023-10-26T02:26:30.095Z,63.51
2023-10-26T02:28:31.672Z,63.27
2023-10-26T02:30:33.214Z,63.34
2023-10-26T02:32:35.209Z,63.61
2023-10-26T02:34:36.716Z,63.53
2023-10-26T02:36:38.276Z,63.30
2023-10-26T02:38:39.802Z,63.19
2023-10-26T02:40:41.534Z,63.35
2023-10-26T02:42:43.269Z,63.48
2023-10-26T02:44:45.669Z,63.60
2023-10-26T02:46:47.372Z,63.30
2023-10-26T02:50:55.284Z,63.44
2023-10-26T02:52:56.931Z,63.57
2023-10-26T02:54:58.388Z,63.55
2023-10-26T02:57:00.061Z,63.36
2023-10-26T02:59:01.694Z,63.57
2023-10-26T03:01:03.270Z,63.34
2023-10-26T03:03:04.934Z,63.57
2023-10-26T03:05:06.670Z,63.50
2023-10-26T03:07:10.690Z,63.34
2023-10-26T03:09:14.636Z,63.33
2023-10-26T03:11:16.406Z,63.64
2023-10-26T03:13:17.882Z,63.56
2023-10-26T03:15:19.804Z,63.64
2023-10-26T03:17:21.383Z,63.47
2023-10-26T03:19:23.078Z,63.54
2023-10-26T03:21:24.862Z,63.77
2023-10-26T03:23:26.361Z,63.63
2023-10-26T03:25:28.037Z,63.60
2023-10-26T03:27:29.599Z,63.61
2023-10-26T03:29:31.122Z,63.53
2023-10-26T03:31:34.707Z,63.66
2023-10-26T03:33:36.246Z,63.83
2023-10-26T03:35:37.852Z,64.00
2023-10-26T03:37:39.399Z,63.88
2023-10-26T03:39:40.882Z,63.61
2023-10-26T03:41:43.609Z,63.67
2023-10-26T03:43:45.147Z,63.88
2023-10-26T03:45:46.809Z,63.62
2023-10-26T03:47:48.334Z,63.80
2023-10-26T03:49:53.334Z,63.91
2023-10-26T03:51:55.332Z,63.76
2023-10-26T03:53:56.903Z,63.76
2023-10-26T03:55:58.718Z,64.02
2023-10-26T03:58:00.183Z,63.76
2023-10-26T04:00:02.154Z,63.92
2023-10-26T04:02:04.387Z,63.83
2023-10-26T04:04:06.172Z,64.01
2023-10-26T04:06:07.703Z,63.94
2023-10-26T04:08:10.755Z,63.98
2023-10-26T04:10:12.194Z,63.81
2023-10-26T04:12:14.579Z,63.87
2023-10-26T04:14:16.646Z,63.76
2023-10-26T04:16:18.221Z,63.78
2023-10-26T04:18:19.958Z,63.76
2023-10-26T04:22:30.838Z,63.99
2023-10-26T04:24:33.012Z,63.95
2023-10-26T04:26:34.625Z,63.77
2023-10-26T04:32:56.532Z,63.82
2023-10-26T04:37:04.798Z,63.99
2023-10-26T04:39:06.418Z,63.83
2023-10-26T04:41:07.895Z,63.93
2023-10-26T04:43:10.119Z,63.98
2023-10-26T04:45:11.735Z,64.00
2023-10-26T04:47:13.352Z,63.97
2023-10-26T04:49:14.811Z,63.88
2023-10-26T04:51:16.493Z,64.00
2023-10-26T04:53:18.087Z,64.17
2023-10-26T04:55:19.793Z,63.91
2023-10-26T04:59:31.129Z,63.91
2023-10-26T05:01:32.780Z,63.98
2023-10-26T05:03:34.383Z,64.06
2023-10-26T05:05:35.956Z,64.12
2023-10-26T05:07:37.570Z,63.91
2023-10-26T05:09:39.262Z,63.98
2023-10-26T05:11:40.877Z,64.20
2023-10-26T05:13:42.454Z,64.19
2023-10-26T05:15:45.260Z,64.09
2023-10-26T05:17:46.871Z,64.34
2023-10-26T05:19:48.591Z,64.29
2023-10-26T05:23:56.663Z,64.28
2023-10-26T05:25:58.254Z,64.06
2023-10-26T05:28:01.195Z,64.04
2023-10-26T05:30:03.775Z,64.25
2023-10-26T05:32:21.601Z,64.09
2023-10-26T05:36:47.089Z,64.21
2023-10-26T05:38:48.524Z,64.36
2023-10-26T05:40:50.726Z,64.23
2023-10-26T05:42:53.075Z,64.46
2023-10-26T05:44:58.023Z,64.50
2023-10-26T05:47:00.683Z,64.25
2023-10-26T05:49:02.404Z,64.34
2023-10-26T05:51:04.293Z,64.29
2023-10-26T05:53:05.897Z,64.64
2023-10-26T05:55:07.668Z,64.14
2023-10-26T05:57:09.221Z,64.52
2023-10-26T05:59:10.749Z,64.34
2023-10-26T06:01:12.406Z,64.56
2023-10-26T06:03:14.010Z,64.02
2023-10-26T06:05:15.650Z,64.34
2023-10-26T06:07:17.270Z,64.56
2023-10-26T06:09:18.998Z,64.16
2023-10-26T06:11:20.675Z,64.37
2023-10-26T06:13:22.144Z,64.66
2023-10-26T06:15:24.087Z,64.21
2023-10-26T06:17:25.601Z,64.41
2023-10-26T06:19:27.089Z,64.26
2023-10-26T06:21:28.702Z,64.51
2023-10-26T06:23:30.377Z,64.30
2023-10-26T06:25:35.699Z,64.58
2023-10-26T06:27:37.471Z,64.40
2023-10-26T06:29:39.028Z,64.41
2023-10-26T06:31:40.672Z,64.39
2023-10-26T06:33:42.487Z,64.70
2023-10-26T06:35:44.092Z,64.72
2023-10-26T06:37:46.824Z,64.57
2023-10-26T06:39:48.462Z,64.69
2023-10-26T06:41:49.995Z,64.46
2023-10-26T06:43:52.790Z,64.31
2023-10-26T06:45:54.315Z,64.72
2023-10-26T06:47:55.834Z,64.59
2023-10-26T06:49:57.422Z,64.35
2023-10-26T06:51:58.999Z,64.38
2023-10-26T06:54:00.663Z,64.89
2023-10-26T06:56:02.310Z,64.44
2023-10-26T06:58:04.396Z,64.45
2023-10-26T07:00:07.807Z,64.45
2023-10-26T07:02:11.927Z,64.36
2023-10-26T07:04:13.984Z,64.36
2023-10-26T07:06:15.860Z,64.43
2023-10-26T07:08:18.128Z,64.63
2023-10-26T07:10:22.575Z,64.39
2023-10-26T07:12:26.943Z,64.42
2023-10-26T07:14:28.452Z,64.70
2023-10-26T07:16:30.995Z,64.38
2023-10-26T07:18:32.759Z,64.35
2023-10-26T07:20:34.434Z,64.28
2023-10-26T07:22:36.503Z,64.56
2023-10-26T07:24:38.190Z,64.37
2023-10-26T07:26:39.831Z,64.70
2023-10-26T07:28:41.429Z,64.30
2023-10-26T07:30:43.729Z,64.54
2023-10-26T07:32:45.418Z,64.47
2023-10-26T07:34:47.248Z,64.48
2023-10-26T07:36:49.135Z,64.63
2023-10-26T07:39:46.735Z,64.61
2023-10-26T07:41:12.136Z,64.63
2023-10-26T07:43:17.319Z,64.51
2023-10-26T07:45:18.978Z,64.32
2023-10-26T07:47:20.537Z,65.26
2023-10-26T07:49:22.079Z,65.06
2023-10-26T07:51:23.680Z,64.91
2023-10-26T07:53:25.410Z,65.30
2023-10-26T07:55:26.922Z,64.73
2023-10-26T07:57:28.426Z,64.65
2023-10-26T07:59:32.836Z,64.64
2023-10-26T08:01:34.453Z,64.70
2023-10-26T08:03:36.343Z,64.94
2023-10-26T08:07:46.869Z,64.50
2023-10-26T08:09:48.977Z,64.68
2023-10-26T08:11:50.754Z,64.50
2023-10-26T08:13:53.185Z,64.67
2023-10-26T08:16:05.978Z,64.42
2023-10-26T08:18:16.628Z,64.88
2023-10-26T08:20:18.373Z,64.74
2023-10-26T08:22:21.454Z,64.61
2023-10-26T08:24:22.944Z,64.84
2023-10-26T08:26:24.385Z,64.48
2023-10-26T08:30:32.416Z,64.67
2023-10-26T08:32:34.172Z,64.82
2023-10-26T08:36:47.782Z,64.91
2023-10-26T08:38:52.818Z,64.57
2023-10-26T08:40:55.112Z,64.72
2023-10-26T08:42:57.197Z,64.65
2023-10-26T08:45:00.417Z,64.87
2023-10-26T08:47:05.473Z,65.07
2023-10-26T08:49:07.749Z,64.92
2023-10-26T08:51:09.557Z,64.82
2023-10-26T08:53:11.183Z,64.83
2023-10-26T08:55:12.790Z,64.82
2023-10-26T09:03:22.977Z,64.69
2023-10-26T09:05:24.813Z,64.88
2023-10-26T09:07:27.246Z,64.69
2023-10-26T09:09:28.785Z,64.54
2023-10-26T09:11:31.212Z,64.71
2023-10-26T09:13:33.747Z,64.51
2023-10-26T09:15:48.966Z,64.83
2023-10-26T09:17:50.507Z,64.49
2023-10-26T09:19:52.064Z,64.67
2023-10-26T09:21:53.974Z,64.79
2023-10-26T09:23:55.572Z,64.44
2023-10-26T09:26:08.908Z,64.51
2023-10-26T09:28:10.683Z,64.65
2023-10-26T09:30:29.371Z,64.40
2023-10-26T09:32:34.512Z,64.40
2023-10-26T09:34:41.245Z,64.36
2023-10-26T09:36:42.841Z,64.36
2023-10-26T09:38:45.157Z,64.34
2023-10-26T09:40:47.163Z,64.40
2023-10-26T09:42:49.672Z,64.38
2023-10-26T09:44:51.644Z,64.59
2023-10-26T09:46:53.267Z,64.74
2023-10-26T09:48:54.894Z,64.75
2023-10-26T09:51:02.035Z,64.63
2023-10-26T09:53:03.786Z,64.44
2023-10-26T09:55:07.862Z,64.66
2023-10-26T09:57:18.405Z,64.35
2023-10-26T09:59:20.238Z,64.30
2023-10-26T10:01:38.507Z,64.27
2023-10-26T10:03:46.632Z,64.13
2023-10-26T10:05:48.757Z,64.36
2023-10-26T10:07:50.396Z,64.34
2023-10-26T10:10:07.042Z,64.22
2023-10-26T10:12:14.967Z,64.04
2023-10-26T10:14:42.556Z,64.06
2023-10-26T10:16:49.909Z,64.05
2023-10-26T10:19:10.931Z,63.98
2023-10-26T10:21:31.189Z,63.80
2023-10-26T10:23:37.670Z,64.35
2023-10-26T10:25:51.551Z,64.29
2023-10-26T10:27:53.453Z,64.16
2023-10-26T10:29:56.706Z,64.00
2023-10-26T10:31:58.426Z,64.14
2023-10-26T10:34:01.945Z,64.10
2023-10-26T10:36:04.903Z,63.71
2023-10-26T10:38:12.187Z,63.77
2023-10-26T10:40:14.993Z,64.06
2023-10-26T10:42:16.617Z,64.33
2023-10-26T10:44:18.418Z,63.67
2023-10-26T10:46:27.146Z,63.88
2023-10-26T10:48:28.858Z,64.25
2023-10-26T10:50:31.205Z,64.26
2023-10-26T10:52:32.797Z,64.03
2023-10-26T10:54:45.107Z,64.22
2023-10-26T10:56:55.196Z,64.11
2023-10-26T10:58:57.743Z,64.06
2023-10-26T11:00:59.249Z,63.97
2023-10-26T11:03:00.892Z,63.57
2023-10-26T11:05:15.816Z,64.03
2023-10-26T11:07:24.240Z,64.31
2023-10-26T11:09:30.394Z,64.13
2023-10-26T11:11:32.881Z,63.79
2023-10-26T11:13:34.873Z,64.13
2023-10-26T11:15:37.561Z,64.07
2023-10-26T11:17:40.578Z,64.09
2023-10-26T11:19:42.146Z,64.19
2023-10-26T11:21:43.697Z,64.03
2023-10-26T11:23:50.155Z,64.20
2023-10-26T11:25:51.763Z,65.35
2023-10-26T11:27:53.325Z,64.27
2023-10-26T11:30:02.506Z,64.67
2023-10-26T11:32:04.413Z,64.09
2023-10-26T11:34:09.459Z,63.86
2023-10-26T11:36:12.018Z,63.80
2023-10-26T11:38:13.831Z,64.41
2023-10-26T11:40:16.888Z,64.05
2023-10-26T11:42:18.445Z,63.69
2023-10-26T11:44:26.863Z,64.01
2023-10-26T11:46:29.112Z,63.99
2023-10-26T11:48:32.624Z,63.57
2023-10-26T11:50:37.661Z,63.35
2023-10-26T11:52:39.407Z,63.48
2023-10-26T11:54:51.660Z,63.31
2023-10-26T11:56:53.308Z,63.23
2023-10-26T11:58:55.021Z,63.00
2023-10-26T12:00:56.555Z,62.77
2023-10-26T12:02:58.948Z,62.85
2023-10-26T12:05:00.695Z,62.86
2023-10-26T12:07:02.361Z,62.80
2023-10-26T12:09:05.925Z,62.87
2023-10-26T12:11:07.524Z,63.16
2023-10-26T12:13:09.080Z,62.73
2023-10-26T12:15:12.789Z,62.93
2023-10-26T12:17:14.476Z,62.34
2023-10-26T12:19:15.994Z,61.82
2023-10-26T12:21:17.988Z,61.77
2023-10-26T12:23:19.482Z,61.54
2023-10-26T12:25:21.038Z,61.54
2023-10-26T12:27:24.626Z,61.15
2023-10-26T12:29:26.337Z,61.20
2023-10-26T12:31:28.031Z,61.45
2023-10-26T12:33:29.925Z,61.58
2023-10-26T12:35:31.398Z,61.70
2023-10-26T12:37:33.029Z,61.68
2023-10-26T12:39:34.838Z,61.46
2023-10-26T12:41:36.365Z,61.83
2023-10-26T12:43:37.861Z,61.82
2023-10-26T12:45:40.584Z,61.57
2023-10-26T12:47:42.241Z,61.56
2023-10-26T12:49:44.121Z,61.50
2023-10-26T12:51:46.160Z,61.08
2023-10-26T12:53:47.655Z,61.23
2023-10-26T12:55:49.473Z,61.45
2023-10-26T12:57:52.094Z,61.26
2023-10-26T12:59:53.961Z,61.19
2023-10-26T13:01:55.502Z,61.08
2023-10-26T13:03:59.206Z,61.21
2023-10-26T13:06:01.073Z,61.28
2023-10-26T13:08:02.675Z,61.46
2023-10-26T13:10:04.617Z,61.44
2023-10-26T13:12:06.147Z,61.85
2023-10-26T13:14:08.381Z,61.77
2023-10-26T13:16:10.576Z,61.52
2023-10-26T13:18:12.444Z,61.32
2023-10-26T13:20:14.077Z,61.61
2023-10-26T13:22:15.553Z,61.45
2023-10-26T13:24:17.341Z,61.39
2023-10-26T13:26:18.984Z,61.17
2023-10-26T13:28:20.622Z,61.16
2023-10-26T13:30:22.163Z,61.19
2023-10-26T13:32:23.779Z,60.87
2023-10-26T13:34:25.271Z,61.44
2023-10-26T13:36:27.171Z,61.05
2023-10-26T13:38:28.663Z,60.95
2023-10-26T13:40:30.218Z,60.72
2023-10-26T13:42:34.727Z,61.06
2023-10-26T13:44:36.290Z,61.30
2023-10-26T13:46:39.082Z,61.41
2023-10-26T13:48:40.715Z,61.20
2023-10-26T13:50:44.270Z,61.62
2023-10-26T13:52:46.826Z,61.36
2023-10-26T13:54:48.546Z,61.70
2023-10-26T13:56:50.282Z,61.29
2023-10-26T13:58:51.838Z,61.80
2023-10-26T14:00:54.689Z,61.99
2023-10-26T14:02:56.579Z,61.81
2023-10-26T14:04:58.094Z,62.70
2023-10-26T14:06:59.676Z,62.53
2023-10-26T14:09:01.708Z,62.79
2023-10-26T14:11:04.402Z,62.12
2023-10-26T14:13:06.258Z,61.82
2023-10-26T14:15:08.061Z,61.46
2023-10-26T14:17:09.557Z,61.91
2023-10-26T14:19:11.213Z,61.49
2023-10-26T14:21:12.802Z,61.27
2023-10-26T14:23:14.553Z,61.01
2023-10-26T14:25:16.118Z,60.81
2023-10-26T14:27:17.816Z,61.31
2023-10-26T14:29:19.302Z,60.60
2023-10-26T14:31:20.998Z,61.59
2023-10-26T14:33:22.856Z,61.71
2023-10-26T14:35:24.700Z,60.80
2023-10-26T14:37:26.212Z,60.98
2023-10-26T14:39:28.304Z,61.16
2023-10-26T14:41:29.796Z,61.93
2023-10-26T14:43:31.288Z,61.89
2023-10-26T14:45:36.042Z,61.66
2023-10-26T14:47:37.692Z,61.19
2023-10-26T14:49:39.480Z,61.32
2023-10-26T14:51:45.936Z,61.49
2023-10-26T14:53:48.152Z,61.17
2023-10-26T14:55:49.622Z,61.34
2023-10-26T14:57:51.251Z,61.17
2023-10-26T14:59:53.459Z,61.08
2023-10-26T15:01:54.950Z,60.99
2023-10-26T15:03:56.941Z,61.15
2023-10-26T15:06:01.831Z,60.89
2023-10-26T15:08:06.516Z,61.08
2023-10-26T15:10:22.573Z,60.77
2023-10-26T15:12:27.888Z,60.96
2023-10-26T15:14:29.394Z,61.29
2023-10-26T15:16:32.149Z,61.34
2023-10-26T15:18:34.039Z,61.49
2023-10-26T15:20:36.145Z,61.52
2023-10-26T15:22:40.225Z,62.06
2023-10-26T15:24:41.912Z,61.51
2023-10-26T15:26:43.481Z,61.59
2023-10-26T15:28:45.150Z,61.51
2023-10-26T15:30:46.856Z,61.38
2023-10-26T15:34:54.899Z,61.52
2023-10-26T15:36:59.421Z,60.97
2023-10-26T15:39:01.132Z,60.75
2023-10-26T15:41:06.252Z,60.90
2023-10-26T15:43:07.813Z,61.11
2023-10-26T15:45:09.605Z,61.44
2023-10-26T15:47:11.218Z,61.22
2023-10-26T15:49:30.678Z,61.09
2023-10-26T15:51:34.570Z,61.13
2023-10-26T15:53:36.098Z,61.25
2023-10-26T15:55:37.717Z,61.16
2023-10-26T15:57:39.316Z,60.95
2023-10-26T15:59:40.905Z,60.68
2023-10-26T16:01:43.728Z,61.02
2023-10-26T16:03:45.660Z,60.59
2023-10-26T16:05:47.188Z,60.54
2023-10-26T16:07:48.823Z,60.65
2023-10-26T16:09:50.340Z,60.58
2023-10-26T16:11:51.948Z,60.67
2023-10-26T16:13:53.479Z,60.81
2023-10-26T16:15:55.078Z,61.18
2023-10-26T16:17:56.837Z,61.38
2023-10-26T16:19:59.010Z,61.05
2023-10-26T16:22:00.485Z,60.77
2023-10-26T16:24:02.079Z,60.68
2023-10-26T16:26:03.755Z,61.06
2023-10-26T16:28:05.386Z,60.32
2023-10-26T16:30:07.340Z,60.16
2023-10-26T16:32:08.884Z,60.11
2023-10-26T16:34:10.635Z,60.50
2023-10-26T16:36:12.326Z,60.31
2023-10-26T16:38:13.914Z,60.94
2023-10-26T16:40:17.010Z,60.93
2023-10-26T16:42:18.503Z,60.69
2023-10-26T16:44:23.517Z,60.85
2023-10-26T16:46:25.134Z,61.02
2023-10-26T16:48:27.540Z,60.96
2023-10-26T16:50:29.364Z,60.94
2023-10-26T16:52:31.641Z,60.97
2023-10-26T16:54:33.312Z,60.89
2023-10-26T16:56:34.856Z,61.08
2023-10-26T16:58:36.343Z,60.97
2023-10-26T17:00:37.868Z,61.15
2023-10-26T17:02:39.358Z,61.23
2023-10-26T17:04:42.492Z,60.74
2023-10-26T17:06:44.043Z,60.70
2023-10-26T17:08:45.894Z,61.08
2023-10-26T17:10:49.350Z,61.56
2023-10-26T17:12:51.011Z,61.01
2023-10-26T17:14:52.512Z,61.03
2023-10-26T17:16:54.255Z,61.22
2023-10-26T17:18:57.341Z,61.13
2023-10-26T17:20:59.035Z,60.97
2023-10-26T17:23:00.539Z,60.89
2023-10-26T17:25:02.730Z,61.35
2023-10-26T17:27:04.729Z,60.82
2023-10-26T17:29:06.344Z,60.80
2023-10-26T17:31:07.930Z,61.00
2023-10-26T17:33:12.813Z,60.93
2023-10-26T17:35:15.875Z,60.92
2023-10-26T17:37:18.584Z,61.57
2023-10-26T17:39:20.783Z,60.80
2023-10-26T17:41:22.293Z,61.45
2023-10-26T17:43:24.089Z,61.26
2023-10-26T17:45:26.583Z,61.05
2023-10-26T17:47:29.015Z,61.00
2023-10-26T17:49:30.550Z,61.14
2023-10-26T17:51:33.936Z,61.21
2023-10-26T17:53:35.837Z,61.65
2023-10-26T17:55:37.687Z,61.78
2023-10-26T17:57:39.369Z,61.72
2023-10-26T17:59:40.859Z,61.93
2023-10-26T18:01:42.444Z,61.79
2023-10-26T18:03:44.043Z,62.23
2023-10-26T18:05:46.160Z,62.10
2023-10-26T18:07:47.668Z,61.84
2023-10-26T18:09:49.402Z,61.78
2023-10-26T18:11:50.989Z,61.95
2023-10-26T18:13:52.502Z,61.79
2023-10-26T18:15:55.158Z,61.98
2023-10-26T18:17:57.363Z,62.09
2023-10-26T18:19:58.874Z,62.18
2023-10-26T18:24:07.917Z,62.08
2023-10-26T18:26:10.372Z,62.16
2023-10-26T18:28:12.465Z,62.49
2023-10-26T18:30:14.539Z,62.68
2023-10-26T18:32:16.760Z,62.34
2023-10-26T18:34:19.403Z,62.69
2023-10-26T18:36:22.119Z,62.43
2023-10-26T18:38:23.781Z,62.69
2023-10-26T18:40:25.297Z,62.76
2023-10-26T18:42:26.833Z,62.82
2023-10-26T18:44:28.642Z,62.59
2023-10-26T18:48:37.452Z,63.09
2023-10-26T18:50:39.122Z,62.81
2023-10-26T18:52:40.804Z,62.83
2023-10-26T18:54:42.404Z,62.85
2023-10-26T18:56:44.055Z,63.12
2023-10-26T18:58:45.609Z,62.91
2023-10-26T19:00:47.834Z,63.16
2023-10-26T19:02:49.396Z,63.28
2023-10-26T19:04:50.900Z,63.33
2023-10-26T19:06:53.063Z,63.32
2023-10-26T19:13:03.966Z,63.19
2023-10-26T19:15:05.813Z,63.44
2023-10-26T19:17:07.499Z,63.32
2023-10-26T19:19:09.291Z,63.57
2023-10-26T19:25:22.002Z,63.40
2023-10-26T19:27:23.715Z,63.71
2023-10-26T19:29:25.383Z,63.80
2023-10-26T19:33:33.450Z,63.64
2023-10-26T19:35:35.572Z,63.85
2023-10-26T19:37:37.097Z,63.81
2023-10-26T19:39:38.564Z,63.74
2023-10-26T19:41:40.038Z,63.97
2023-10-26T19:43:41.486Z,63.80
2023-10-26T19:47:44.656Z,64.16
2023-10-26T19:49:46.894Z,64.16
2023-10-26T19:51:48.451Z,64.03
2023-10-26T19:53:51.268Z,63.93
2023-10-26T19:55:54.162Z,64.07
2023-10-26T19:57:55.753Z,63.96
2023-10-26T19:59:57.360Z,64.14
2023-10-26T20:01:59.010Z,64.30
2023-10-26T20:04:01.270Z,64.21
2023-10-26T20:06:05.219Z,64.13
2023-10-26T20:08:11.391Z,64.31
2023-10-26T20:10:12.904Z,64.25
2023-10-26T20:12:14.416Z,64.16
2023-10-26T20:14:16.804Z,63.84
2023-10-26T20:16:18.550Z,64.20
2023-10-26T20:18:20.089Z,63.92
2023-10-26T20:20:22.724Z,64.16
2023-10-26T20:22:25.298Z,64.35
2023-10-26T20:24:28.383Z,64.18
2023-10-26T20:26:30.033Z,64.33
2023-10-26T20:28:31.788Z,64.05
2023-10-26T20:30:33.536Z,64.37
2023-10-26T20:32:35.763Z,64.25
2023-10-26T20:34:37.577Z,64.31
2023-10-26T20:36:39.053Z,64.43
2023-10-26T20:38:40.806Z,64.62
2023-10-26T20:40:42.431Z,64.46
2023-10-26T20:42:44.228Z,64.32
2023-10-26T20:44:45.975Z,64.19
2023-10-26T20:46:47.692Z,64.15
2023-10-26T20:48:49.346Z,64.44
2023-10-26T20:50:51.492Z,64.40
2023-10-26T20:52:53.104Z,64.38
2023-10-26T20:54:54.764Z,64.46
2023-10-26T20:56:56.317Z,64.54
2023-10-26T20:58:58.118Z,64.25
2023-10-26T21:01:03.145Z,64.61
2023-10-26T21:03:04.656Z,64.55
2023-10-26T21:05:06.331Z,64.29
2023-10-26T21:07:08.880Z,64.65
2023-10-26T21:09:10.515Z,64.74
2023-10-26T21:11:16.150Z,64.67
2023-10-26T21:13:18.467Z,64.57
2023-10-26T21:15:21.557Z,64.59
2023-10-26T21:17:24.169Z,64.38
2023-10-26T21:19:25.950Z,64.50
2023-10-26T21:21:27.459Z,64.24
2023-10-26T21:23:28.965Z,64.36
2023-10-26T21:25:34.580Z,64.54
2023-10-26T21:27:36.616Z,64.40
2023-10-26T21:29:38.442Z,64.67
2023-10-26T21:31:39.987Z,64.55
2023-10-26T21:33:41.513Z,64.54
2023-10-26T21:35:43.149Z,64.75
2023-10-26T21:37:44.655Z,64.40
2023-10-26T21:39:46.595Z,64.73
2023-10-26T21:41:48.364Z,64.73
2023-10-26T21:43:49.916Z,64.78
2023-10-26T21:45:51.411Z,64.71
2023-10-26T21:47:52.985Z,64.46
2023-10-26T21:49:54.742Z,64.79
2023-10-26T21:51:56.379Z,64.72
2023-10-26T21:53:58.311Z,64.61
2023-10-26T21:55:59.842Z,64.45
2023-10-26T21:58:01.719Z,64.55
2023-10-26T22:00:06.760Z,64.56
2023-10-26T22:02:08.876Z,64.74
2023-10-26T22:04:21.549Z,64.64
2023-10-26T22:06:25.102Z,64.78
2023-10-26T22:08:26.605Z,64.85
2023-10-26T22:10:28.205Z,65.12
2023-10-26T22:12:29.945Z,65.04
2023-10-26T22:14:34.853Z,64.95
2023-10-26T22:16:36.287Z,64.80
2023-10-26T22:18:37.916Z,64.87
2023-10-26T22:20:40.161Z,65.02
2023-10-26T22:22:41.744Z,65.21
2023-10-26T22:24:43.217Z,64.86
2023-10-26T22:26:44.720Z,64.99
2023-10-26T22:28:46.580Z,64.87
2023-10-26T22:30:48.152Z,64.95
2023-10-26T22:32:49.969Z,65.08
2023-10-26T22:34:52.054Z,65.22
2023-10-26T22:36:54.779Z,64.88
2023-10-26T22:38:57.025Z,65.10
2023-10-26T22:40:59.253Z,64.85
2023-10-26T22:43:02.730Z,64.83
2023-10-26T22:45:04.355Z,65.13
2023-10-26T22:47:06.011Z,64.85
2023-10-26T22:49:07.588Z,65.08
2023-10-26T22:51:09.083Z,64.84
2023-10-26T22:53:10.822Z,64.99
2023-10-26T22:55:12.419Z,65.10
2023-10-26T22:57:14.194Z,65.25
2023-10-26T22:59:15.671Z,64.93
2023-10-26T23:01:17.274Z,65.25
2023-10-26T23:03:18.745Z,64.93
2023-10-26T23:05:20.337Z,65.05
2023-10-26T23:07:21.975Z,65.31
2023-10-26T23:09:23.607Z,65.15
2023-10-26T23:11:25.177Z,64.90
2023-10-26T23:13:27.074Z,64.87
2023-10-26T23:15:28.828Z,64.97
2023-10-26T23:17:30.474Z,65.22
2023-10-26T23:19:32.020Z,65.22
2023-10-26T23:21:33.755Z,65.13
2023-10-26T23:23:39.531Z,64.96
2023-10-26T23:25:42.524Z,64.91
2023-10-26T23:27:44.241Z,64.93
2023-10-26T23:29:45.799Z,65.11
2023-10-26T23:31:47.425Z,65.04
2023-10-26T23:33:49.354Z,65.29
2023-10-26T23:35:51.028Z,65.21
2023-10-26T23:37:52.857Z,65.06
2023-10-26T23:39:54.393Z,65.20
2023-10-26T23:41:56.072Z,65.09
2023-10-26T23:43:57.531Z,65.05
2023-10-26T23:45:59.382Z,65.02
2023-10-26T23:48:01.124Z,65.41
2023-10-26T23:50:02.782Z,65.09
2023-10-26T23:52:04.464Z,65.10
2023-10-26T23:54:06.125Z,65.14
2023-10-26T23:56:07.763Z,65.04
2023-10-26T23:58:09.506Z,65.22
